sensor_id;sensor_type;location;lat;lon;timestamp;pressure;altitude;pressure_sealevel;temperature;humidity
16525;BME280;8375;33.594;-117.718;2023-02-28T00:01:20;100687.56;;;10.77;100.00
16525;BME280;8375;33.594;-117.718;2023-02-28T00:03:50;100680.00;;;10.74;100.00
16525;BME280;8375;33.594;-117.718;2023-02-28T00:06:19;100684.25;;;10.75;100.00
16525;BME280;8375;33.594;-117.718;2023-02-28T00:08:48;100689.44;;;10.75;100.00
16525;BME280;8375;33.594;-117.718;2023-02-28T00:11:17;100696.22;;;10.64;100.00
16525;BME280;8375;33.594;-117.718;2023-02-28T00:13:46;100689.25;;;10.65;100.00
16525;BME280;8375;33.594;-117.718;2023-02-28T00:16:16;100681.97;;;10.57;100.00
16525;BME280;8375;33.594;-117.718;2023-02-28T00:18:46;100684.06;;;10.52;100.00
16525;BME280;8375;33.594;-117.718;2023-02-28T00:21:18;100681.38;;;10.53;100.00
16525;BME280;8375;33.594;-117.718;2023-02-28T00:23:47;100683.75;;;10.56;100.00
16525;BME280;8375;33.594;-117.718;2023-02-28T00:26:15;100683.13;;;10.53;100.00
16525;BME280;8375;33.594;-117.718;2023-02-28T00:28:44;100674.44;;;10.41;100.00
16525;BME280;8375;33.594;-117.718;2023-02-28T00:31:13;100675.41;;;10.38;100.00
16525;BME280;8375;33.594;-117.718;2023-02-28T00:33:41;100684.91;;;10.39;100.00
16525;BME280;8375;33.594;-117.718;2023-02-28T00:36:11;100685.81;;;10.38;100.00
16525;BME280;8375;33.594;-117.718;2023-02-28T01:47:36;100685.59;;;10.16;100.00
16525;BME280;8375;33.594;-117.718;2023-02-28T01:50:11;100691.00;;;10.12;100.00
16525;BME280;8375;33.594;-117.718;2023-02-28T01:52:42;100685.19;;;10.09;100.00
16525;BME280;8375;33.594;-117.718;2023-02-28T01:55:12;100686.00;;;10.09;100.00
16525;BME280;8375;33.594;-117.718;2023-02-28T01:57:43;100685.19;;;10.09;100.00
16525;BME280;8375;33.594;-117.718;2023-02-28T02:00:15;100679.81;;;10.12;100.00
16525;BME280;8375;33.594;-117.718;2023-02-28T02:02:49;100677.22;;;10.12;100.00
16525;BME280;8375;33.594;-117.718;2023-02-28T02:05:21;100669.50;;;10.10;100.00
16525;BME280;8375;33.594;-117.718;2023-02-28T02:07:54;100674.69;;;10.10;100.00
16525;BME280;8375;33.594;-117.718;2023-02-28T02:10:27;100665.97;;;10.11;100.00
16525;BME280;8375;33.594;-117.718;2023-02-28T02:13:08;100667.03;;;10.09;100.00
16525;BME280;8375;33.594;-117.718;2023-02-28T02:15:43;100672.84;;;10.12;100.00
16525;BME280;8375;33.594;-117.718;2023-02-28T02:18:29;100673.03;;;10.09;100.00
16525;BME280;8375;33.594;-117.718;2023-02-28T02:21:28;100666.41;;;10.05;100.00
16525;BME280;8375;33.594;-117.718;2023-02-28T02:24:24;100668.91;;;10.07;100.00
16525;BME280;8375;33.594;-117.718;2023-02-28T02:27:13;100665.66;;;10.03;100.00
16525;BME280;8375;33.594;-117.718;2023-02-28T02:30:33;100669.94;;;10.04;100.00
16525;BME280;8375;33.594;-117.718;2023-02-28T02:33:32;100664.94;;;10.01;100.00
16525;BME280;8375;33.594;-117.718;2023-02-28T02:36:08;100669.94;;;10.04;100.00
16525;BME280;8375;33.594;-117.718;2023-02-28T02:38:47;100667.44;;;10.03;100.00
16525;BME280;8375;33.594;-117.718;2023-02-28T02:41:22;100669.09;;;10.04;100.00
16525;BME280;8375;33.594;-117.718;2023-02-28T02:43:56;100666.94;;;9.97;100.00
16525;BME280;8375;33.594;-117.718;2023-02-28T02:46:29;100668.16;;;9.92;100.00
16525;BME280;8375;33.594;-117.718;2023-02-28T02:49:05;100664.94;;;9.88;100.00
16525;BME280;8375;33.594;-117.718;2023-02-28T02:51:39;100678.00;;;9.87;100.00
16525;BME280;8375;33.594;-117.718;2023-02-28T02:54:13;100682.25;;;9.88;100.00
16525;BME280;8375;33.594;-117.718;2023-02-28T02:56:44;100682.16;;;9.89;100.00
16525;BME280;8375;33.594;-117.718;2023-02-28T02:59:17;100683.91;;;9.89;100.00
16525;BME280;8375;33.594;-117.718;2023-02-28T03:01:50;100689.03;;;9.90;100.00
16525;BME280;8375;33.594;-117.718;2023-02-28T03:04:21;100685.56;;;9.90;100.00
16525;BME280;8375;33.594;-117.718;2023-02-28T03:06:53;100691.94;;;9.98;100.00
16525;BME280;8375;33.594;-117.718;2023-02-28T03:09:22;100692.25;;;10.20;100.00
16525;BME280;8375;33.594;-117.718;2023-02-28T03:11:53;100683.63;;;10.32;100.00
16525;BME280;8375;33.594;-117.718;2023-02-28T03:14:33;100689.78;;;10.44;100.00
16525;BME280;8375;33.594;-117.718;2023-02-28T03:17:29;100682.81;;;10.57;100.00
16525;BME280;8375;33.594;-117.718;2023-02-28T03:20:06;100682.50;;;10.49;100.00
16525;BME280;8375;33.594;-117.718;2023-02-28T03:22:54;100681.16;;;10.44;100.00
16525;BME280;8375;33.594;-117.718;2023-02-28T03:25:37;100690.81;;;10.28;100.00
16525;BME280;8375;33.594;-117.718;2023-02-28T03:28:16;100685.69;;;10.27;100.00
16525;BME280;8375;33.594;-117.718;2023-02-28T03:30:50;100697.44;;;10.20;100.00
16525;BME280;8375;33.594;-117.718;2023-02-28T03:33:23;100694.03;;;10.19;100.00
16525;BME280;8375;33.594;-117.718;2023-02-28T03:35:55;100697.13;;;10.11;100.00
16525;BME280;8375;33.594;-117.718;2023-02-28T03:38:31;100688.41;;;10.00;100.00
16525;BME280;8375;33.594;-117.718;2023-02-28T03:41:06;100692.47;;;10.04;100.00
16525;BME280;8375;33.594;-117.718;2023-02-28T03:43:41;100700.44;;;10.01;100.00
16525;BME280;8375;33.594;-117.718;2023-02-28T03:46:18;100700.84;;;9.94;100.00
16525;BME280;8375;33.594;-117.718;2023-02-28T03:48:53;100702.19;;;9.87;100.00
16525;BME280;8375;33.594;-117.718;2023-02-28T03:51:24;100701.47;;;9.85;100.00
16525;BME280;8375;33.594;-117.718;2023-02-28T03:54:02;100707.25;;;9.89;100.00
16525;BME280;8375;33.594;-117.718;2023-02-28T03:56:37;100704.38;;;9.93;100.00
16525;BME280;8375;33.594;-117.718;2023-02-28T03:59:12;100704.16;;;9.96;100.00
16525;BME280;8375;33.594;-117.718;2023-02-28T04:01:43;100701.06;;;10.04;100.00
16525;BME280;8375;33.594;-117.718;2023-02-28T04:04:13;100698.47;;;10.04;100.00
16525;BME280;8375;33.594;-117.718;2023-02-28T04:06:43;100707.16;;;10.03;100.00
16525;BME280;8375;33.594;-117.718;2023-02-28T04:09:14;100709.34;;;10.09;100.00
16525;BME280;8375;33.594;-117.718;2023-02-28T04:11:45;100708.63;;;10.07;100.00
16525;BME280;8375;33.594;-117.718;2023-02-28T04:14:14;100714.75;;;9.93;100.00
16525;BME280;8375;33.594;-117.718;2023-02-28T04:16:43;100708.50;;;9.83;100.00
16525;BME280;8375;33.594;-117.718;2023-02-28T04:19:12;100720.22;;;9.76;100.00
16525;BME280;8375;33.594;-117.718;2023-02-28T04:21:43;100714.22;;;9.88;100.00
16525;BME280;8375;33.594;-117.718;2023-02-28T04:24:15;100728.31;;;9.97;100.00
16525;BME280;8375;33.594;-117.718;2023-02-28T04:26:45;100725.34;;;10.03;100.00
16525;BME280;8375;33.594;-117.718;2023-02-28T04:29:19;100717.34;;;9.93;100.00
16525;BME280;8375;33.594;-117.718;2023-02-28T04:31:48;100717.94;;;9.97;100.00
16525;BME280;8375;33.594;-117.718;2023-02-28T04:34:19;100728.13;;;10.00;100.00
16525;BME280;8375;33.594;-117.718;2023-02-28T04:36:50;100729.25;;;9.96;100.00
16525;BME280;8375;33.594;-117.718;2023-02-28T04:39:23;100728.25;;;9.98;100.00
16525;BME280;8375;33.594;-117.718;2023-02-28T04:41:52;100728.13;;;9.87;100.00
16525;BME280;8375;33.594;-117.718;2023-02-28T04:44:21;100731.94;;;9.81;100.00
16525;BME280;8375;33.594;-117.718;2023-02-28T04:46:50;100731.53;;;9.88;100.00
16525;BME280;8375;33.594;-117.718;2023-02-28T04:49:19;100728.41;;;9.82;100.00
16525;BME280;8375;33.594;-117.718;2023-02-28T04:51:47;100733.91;;;9.78;100.00
16525;BME280;8375;33.594;-117.718;2023-02-28T04:54:16;100738.44;;;9.74;100.00
16525;BME280;8375;33.594;-117.718;2023-02-28T04:56:47;100739.38;;;9.73;100.00
16525;BME280;8375;33.594;-117.718;2023-02-28T04:59:16;100735.66;;;9.77;100.00
16525;BME280;8375;33.594;-117.718;2023-02-28T05:01:47;100740.63;;;9.80;100.00
16525;BME280;8375;33.594;-117.718;2023-02-28T05:04:16;100750.38;;;9.77;100.00
16525;BME280;8375;33.594;-117.718;2023-02-28T05:06:45;100746.13;;;9.76;100.00
16525;BME280;8375;33.594;-117.718;2023-02-28T05:09:14;100742.16;;;9.70;100.00
16525;BME280;8375;33.594;-117.718;2023-02-28T05:11:43;100762.38;;;9.65;100.00
16525;BME280;8375;33.594;-117.718;2023-02-28T05:14:14;100765.88;;;9.64;100.00
16525;BME280;8375;33.594;-117.718;2023-02-28T05:16:43;100768.78;;;9.59;100.00
16525;BME280;8375;33.594;-117.718;2023-02-28T05:19:11;100758.41;;;9.59;100.00
16525;BME280;8375;33.594;-117.718;2023-02-28T05:21:41;100762.03;;;9.57;100.00
16525;BME280;8375;33.594;-117.718;2023-02-28T05:24:16;100769.53;;;9.61;100.00
16525;BME280;8375;33.594;-117.718;2023-02-28T05:26:50;100758.69;;;9.54;100.00
16525;BME280;8375;33.594;-117.718;2023-02-28T05:29:20;100761.47;;;9.51;100.00
16525;BME280;8375;33.594;-117.718;2023-02-28T05:31:49;100755.88;;;9.45;100.00
16525;BME280;8375;33.594;-117.718;2023-02-28T05:34:18;100751.06;;;9.38;100.00
16525;BME280;8375;33.594;-117.718;2023-02-28T05:36:46;100754.88;;;9.33;100.00
16525;BME280;8375;33.594;-117.718;2023-02-28T05:39:15;100751.84;;;9.26;100.00
16525;BME280;8375;33.594;-117.718;2023-02-28T05:41:44;100767.97;;;9.17;100.00
16525;BME280;8375;33.594;-117.718;2023-02-28T05:44:12;100763.97;;;9.11;100.00
16525;BME280;8375;33.594;-117.718;2023-02-28T05:46:43;100761.69;;;9.06;100.00
16525;BME280;8375;33.594;-117.718;2023-02-28T05:49:11;100755.13;;;9.01;100.00
16525;BME280;8375;33.594;-117.718;2023-02-28T05:51:40;100764.28;;;8.92;100.00
16525;BME280;8375;33.594;-117.718;2023-02-28T05:54:09;100763.94;;;8.84;100.00
16525;BME280;8375;33.594;-117.718;2023-02-28T05:56:37;100765.31;;;8.75;100.00
16525;BME280;8375;33.594;-117.718;2023-02-28T05:59:07;100769.91;;;8.70;100.00
16525;BME280;8375;33.594;-117.718;2023-02-28T06:01:37;100779.47;;;8.69;100.00
16525;BME280;8375;33.594;-117.718;2023-02-28T06:04:09;100776.88;;;8.69;100.00
16525;BME280;8375;33.594;-117.718;2023-02-28T06:06:40;100778.44;;;8.72;100.00
16525;BME280;8375;33.594;-117.718;2023-02-28T06:09:09;100780.09;;;8.87;100.00
16525;BME280;8375;33.594;-117.718;2023-02-28T06:11:37;100782.31;;;8.79;100.00
16525;BME280;8375;33.594;-117.718;2023-02-28T06:14:06;100782.88;;;8.70;100.00
16525;BME280;8375;33.594;-117.718;2023-02-28T06:16:35;100773.78;;;8.62;100.00
16525;BME280;8375;33.594;-117.718;2023-02-28T06:19:04;100785.25;;;8.58;100.00
16525;BME280;8375;33.594;-117.718;2023-02-28T06:21:34;100784.81;;;8.51;100.00
16525;BME280;8375;33.594;-117.718;2023-02-28T06:24:04;100786.78;;;8.46;100.00
16525;BME280;8375;33.594;-117.718;2023-02-28T06:26:32;100783.81;;;8.38;100.00
16525;BME280;8375;33.594;-117.718;2023-02-28T06:29:01;100781.59;;;8.32;100.00
16525;BME280;8375;33.594;-117.718;2023-02-28T06:31:30;100791.09;;;8.31;100.00
16525;BME280;8375;33.594;-117.718;2023-02-28T06:33:58;100787.94;;;8.26;100.00
16525;BME280;8375;33.594;-117.718;2023-02-28T06:36:27;100782.75;;;8.26;100.00
16525;BME280;8375;33.594;-117.718;2023-02-28T06:38:57;100784.63;;;8.39;100.00
16525;BME280;8375;33.594;-117.718;2023-02-28T06:41:27;100780.00;;;8.29;100.00
16525;BME280;8375;33.594;-117.718;2023-02-28T06:43:55;100771.13;;;8.33;100.00
16525;BME280;8375;33.594;-117.718;2023-02-28T06:46:24;100779.38;;;8.26;100.00
16525;BME280;8375;33.594;-117.718;2023-02-28T06:48:53;100771.84;;;8.21;100.00
16525;BME280;8375;33.594;-117.718;2023-02-28T06:51:22;100778.97;;;8.17;100.00
16525;BME280;8375;33.594;-117.718;2023-02-28T06:53:51;100779.03;;;8.16;100.00
16525;BME280;8375;33.594;-117.718;2023-02-28T06:56:22;100779.72;;;8.19;100.00
16525;BME280;8375;33.594;-117.718;2023-02-28T06:58:51;100774.56;;;8.34;100.00
16525;BME280;8375;33.594;-117.718;2023-02-28T07:01:20;100772.09;;;8.47;100.00
16525;BME280;8375;33.594;-117.718;2023-02-28T07:03:50;100771.88;;;8.51;100.00
16525;BME280;8375;33.594;-117.718;2023-02-28T07:06:20;100768.66;;;8.32;100.00
16525;BME280;8375;33.594;-117.718;2023-02-28T07:08:49;100759.22;;;8.31;100.00
16525;BME280;8375;33.594;-117.718;2023-02-28T07:11:18;100759.66;;;8.23;100.00
16525;BME280;8375;33.594;-117.718;2023-02-28T07:13:50;100765.75;;;8.22;100.00
16525;BME280;8375;33.594;-117.718;2023-02-28T07:16:19;100761.63;;;8.19;100.00
16525;BME280;8375;33.594;-117.718;2023-02-28T07:18:48;100768.53;;;8.19;100.00
16525;BME280;8375;33.594;-117.718;2023-02-28T07:21:16;100770.38;;;8.17;100.00
16525;BME280;8375;33.594;-117.718;2023-02-28T07:23:45;100769.22;;;8.06;100.00
16525;BME280;8375;33.594;-117.718;2023-02-28T07:26:15;100764.59;;;7.97;100.00
16525;BME280;8375;33.594;-117.718;2023-02-28T07:28:45;100763.09;;;7.93;100.00
16525;BME280;8375;33.594;-117.718;2023-02-28T07:31:16;100754.66;;;7.89;100.00
16525;BME280;8375;33.594;-117.718;2023-02-28T07:33:45;100755.16;;;7.96;100.00
16525;BME280;8375;33.594;-117.718;2023-02-28T07:36:16;100746.59;;;7.96;100.00
16525;BME280;8375;33.594;-117.718;2023-02-28T07:38:46;100745.91;;;7.92;100.00
16525;BME280;8375;33.594;-117.718;2023-02-28T07:41:17;100747.00;;;7.88;100.00
16525;BME280;8375;33.594;-117.718;2023-02-28T07:43:46;100748.00;;;7.85;100.00
16525;BME280;8375;33.594;-117.718;2023-02-28T07:46:17;100737.81;;;8.29;100.00
16525;BME280;8375;33.594;-117.718;2023-02-28T07:48:47;100742.16;;;7.98;100.00
16525;BME280;8375;33.594;-117.718;2023-02-28T07:51:16;100746.59;;;7.96;100.00
16525;BME280;8375;33.594;-117.718;2023-02-28T07:53:45;100744.25;;;7.91;100.00
16525;BME280;8375;33.594;-117.718;2023-02-28T07:56:13;100743.50;;;7.89;100.00
16525;BME280;8375;33.594;-117.718;2023-02-28T07:58:42;100742.59;;;7.90;100.00
16525;BME280;8375;33.594;-117.718;2023-02-28T08:01:11;100731.53;;;8.02;100.00
16525;BME280;8375;33.594;-117.718;2023-02-28T08:03:42;100731.91;;;7.96;100.00
16525;BME280;8375;33.594;-117.718;2023-02-28T08:06:16;100729.38;;;7.95;100.00
16525;BME280;8375;33.594;-117.718;2023-02-28T08:08:45;100719.88;;;7.95;100.00
16525;BME280;8375;33.594;-117.718;2023-02-28T08:11:14;100719.31;;;7.90;100.00
16525;BME280;8375;33.594;-117.718;2023-02-28T08:13:43;100727.84;;;7.76;100.00
16525;BME280;8375;33.594;-117.718;2023-02-28T08:16:13;100728.59;;;7.78;100.00
16525;BME280;8375;33.594;-117.718;2023-02-28T08:18:50;100713.47;;;7.86;100.00
16525;BME280;8375;33.594;-117.718;2023-02-28T08:21:19;100713.75;;;8.12;100.00
16525;BME280;8375;33.594;-117.718;2023-02-28T08:23:48;100707.56;;;8.15;100.00
16525;BME280;8375;33.594;-117.718;2023-02-28T08:26:17;100708.03;;;8.21;100.00
16525;BME280;8375;33.594;-117.718;2023-02-28T08:28:46;100711.59;;;8.04;100.00
16525;BME280;8375;33.594;-117.718;2023-02-28T08:31:15;100709.22;;;7.85;100.00
16525;BME280;8375;33.594;-117.718;2023-02-28T08:33:44;100722.50;;;7.79;100.00
16525;BME280;8375;33.594;-117.718;2023-02-28T08:36:16;100717.22;;;7.66;100.00
16525;BME280;8375;33.594;-117.718;2023-02-28T08:38:45;100727.28;;;7.71;100.00
16525;BME280;8375;33.594;-117.718;2023-02-28T08:41:14;100716.75;;;7.74;100.00
16525;BME280;8375;33.594;-117.718;2023-02-28T08:43:42;100709.00;;;7.74;100.00
16525;BME280;8375;33.594;-117.718;2023-02-28T08:46:12;100717.03;;;7.69;100.00
16525;BME280;8375;33.594;-117.718;2023-02-28T08:48:41;100705.50;;;7.75;100.00
16525;BME280;8375;33.594;-117.718;2023-02-28T08:51:11;100708.00;;;7.76;100.00
16525;BME280;8375;33.594;-117.718;2023-02-28T08:53:44;100712.34;;;7.76;100.00
16525;BME280;8375;33.594;-117.718;2023-02-28T08:56:16;100706.41;;;7.74;100.00
16525;BME280;8375;33.594;-117.718;2023-02-28T08:58:45;100701.22;;;7.90;100.00
16525;BME280;8375;33.594;-117.718;2023-02-28T09:01:15;100691.63;;;7.92;100.00
16525;BME280;8375;33.594;-117.718;2023-02-28T09:03:45;100694.78;;;7.97;100.00
16525;BME280;8375;33.594;-117.718;2023-02-28T09:06:14;100701.13;;;7.91;100.00
16525;BME280;8375;33.594;-117.718;2023-02-28T09:08:45;100697.16;;;7.86;100.00
16525;BME280;8375;33.594;-117.718;2023-02-28T09:11:14;100696.63;;;7.95;100.00
16525;BME280;8375;33.594;-117.718;2023-02-28T09:13:42;100694.94;;;7.94;100.00
16525;BME280;8375;33.594;-117.718;2023-02-28T09:16:12;100699.56;;;7.89;100.00
16525;BME280;8375;33.594;-117.718;2023-02-28T09:18:42;100699.63;;;7.87;100.00
16525;BME280;8375;33.594;-117.718;2023-02-28T09:21:15;100688.47;;;7.87;100.00
16525;BME280;8375;33.594;-117.718;2023-02-28T09:23:47;100684.88;;;7.89;100.00
16525;BME280;8375;33.594;-117.718;2023-02-28T09:26:17;100686.06;;;7.84;100.00
16525;BME280;8375;33.594;-117.718;2023-02-28T09:28:46;100694.38;;;7.89;100.00
16525;BME280;8375;33.594;-117.718;2023-02-28T09:31:17;100692.22;;;8.12;100.00
16525;BME280;8375;33.594;-117.718;2023-02-28T09:33:47;100690.94;;;8.19;100.00
16525;BME280;8375;33.594;-117.718;2023-02-28T09:36:16;100677.81;;;8.22;100.00
16525;BME280;8375;33.594;-117.718;2023-02-28T09:38:47;100675.78;;;8.13;100.00
16525;BME280;8375;33.594;-117.718;2023-02-28T09:41:20;100672.25;;;7.99;100.00
16525;BME280;8375;33.594;-117.718;2023-02-28T09:43:53;100668.53;;;7.89;100.00
16525;BME280;8375;33.594;-117.718;2023-02-28T09:46:30;100669.22;;;8.07;100.00
16525;BME280;8375;33.594;-117.718;2023-02-28T09:49:03;100673.16;;;7.98;100.00
16525;BME280;8375;33.594;-117.718;2023-02-28T09:51:46;100658.94;;;7.91;100.00
16525;BME280;8375;33.594;-117.718;2023-02-28T09:54:20;100653.78;;;7.91;100.00
16525;BME280;8375;33.594;-117.718;2023-02-28T09:56:51;100652.28;;;7.87;100.00
16525;BME280;8375;33.594;-117.718;2023-02-28T09:59:36;100648.09;;;7.84;100.00
16525;BME280;8375;33.594;-117.718;2023-02-28T10:02:17;100645.44;;;7.86;100.00
16525;BME280;8375;33.594;-117.718;2023-02-28T10:04:51;100636.38;;;7.78;100.00
16525;BME280;8375;33.594;-117.718;2023-02-28T10:07:36;100638.31;;;7.75;100.00
16525;BME280;8375;33.594;-117.718;2023-02-28T10:10:20;100629.31;;;7.97;100.00
16525;BME280;8375;33.594;-117.718;2023-02-28T10:12:53;100635.31;;;7.97;100.00
16525;BME280;8375;33.594;-117.718;2023-02-28T10:15:25;100632.72;;;7.97;100.00
16525;BME280;8375;33.594;-117.718;2023-02-28T10:17:59;100626.88;;;7.93;100.00
16525;BME280;8375;33.594;-117.718;2023-02-28T10:20:33;100619.97;;;7.80;100.00
16525;BME280;8375;33.594;-117.718;2023-02-28T10:23:08;100616.34;;;7.82;100.00
16525;BME280;8375;33.594;-117.718;2023-02-28T10:25:41;100619.59;;;7.86;100.00
16525;BME280;8375;33.594;-117.718;2023-02-28T10:28:15;100618.56;;;7.88;100.00
16525;BME280;8375;33.594;-117.718;2023-02-28T10:30:46;100608.28;;;8.03;100.00
16525;BME280;8375;33.594;-117.718;2023-02-28T10:33:23;100600.41;;;8.04;100.00
16525;BME280;8375;33.594;-117.718;2023-02-28T10:35:52;100597.09;;;8.17;100.00
16525;BME280;8375;33.594;-117.718;2023-02-28T10:38:22;100591.75;;;8.49;100.00
16525;BME280;8375;33.594;-117.718;2023-02-28T10:41:04;100583.50;;;8.57;100.00
16525;BME280;8375;33.594;-117.718;2023-02-28T10:43:32;100589.22;;;8.62;100.00
16525;BME280;8375;33.594;-117.718;2023-02-28T10:46:03;100586.09;;;8.57;100.00
16525;BME280;8375;33.594;-117.718;2023-02-28T10:48:38;100591.16;;;8.58;100.00
16525;BME280;8375;33.594;-117.718;2023-02-28T10:51:08;100583.56;;;8.70;100.00
16525;BME280;8375;33.594;-117.718;2023-02-28T10:53:45;100586.31;;;8.81;100.00
16525;BME280;8375;33.594;-117.718;2023-02-28T10:56:21;100589.00;;;8.79;100.00
16525;BME280;8375;33.594;-117.718;2023-02-28T10:58:52;100589.00;;;8.79;100.00
16525;BME280;8375;33.594;-117.718;2023-02-28T11:01:24;100591.78;;;8.76;100.00
16525;BME280;8375;33.594;-117.718;2023-02-28T11:03:53;100596.22;;;8.74;100.00
16525;BME280;8375;33.594;-117.718;2023-02-28T11:06:23;100588.16;;;8.79;100.00
16525;BME280;8375;33.594;-117.718;2023-02-28T11:08:54;100583.91;;;8.78;100.00
16525;BME280;8375;33.594;-117.718;2023-02-28T11:11:26;100590.00;;;8.77;100.00
16525;BME280;8375;33.594;-117.718;2023-02-28T11:14:04;100584.84;;;8.77;100.00
16525;BME280;8375;33.594;-117.718;2023-02-28T11:16:34;100581.72;;;8.72;100.00
16525;BME280;8375;33.594;-117.718;2023-02-28T11:19:07;100583.88;;;8.65;100.00
16525;BME280;8375;33.594;-117.718;2023-02-28T11:21:51;100574.78;;;8.72;100.00
16525;BME280;8375;33.594;-117.718;2023-02-28T11:24:24;100555.28;;;8.94;100.00
16525;BME280;8375;33.594;-117.718;2023-02-28T11:26:56;100551.88;;;8.93;100.00
16525;BME280;8375;33.594;-117.718;2023-02-28T11:29:26;100548.13;;;8.85;100.00
16525;BME280;8375;33.594;-117.718;2023-02-28T11:32:04;100546.84;;;8.77;100.00
16525;BME280;8375;33.594;-117.718;2023-02-28T11:34:34;100548.06;;;8.72;100.00
16525;BME280;8375;33.594;-117.718;2023-02-28T11:37:05;100533.59;;;8.82;100.00
16525;BME280;8375;33.594;-117.718;2023-02-28T11:39:37;100530.41;;;8.91;100.00
16525;BME280;8375;33.594;-117.718;2023-02-28T11:42:25;100524.69;;;8.86;100.00
16525;BME280;8375;33.594;-117.718;2023-02-28T11:47:59;100527.09;;;8.89;100.00
16525;BME280;8375;33.594;-117.718;2023-02-28T11:50:45;100538.97;;;8.79;100.00
16525;BME280;8375;33.594;-117.718;2023-02-28T11:53:23;100546.59;;;8.68;100.00
16525;BME280;8375;33.594;-117.718;2023-02-28T11:56:00;100545.44;;;8.59;100.00
16525;BME280;8375;33.594;-117.718;2023-02-28T11:58:39;100538.47;;;8.59;100.00
16525;BME280;8375;33.594;-117.718;2023-02-28T12:04:22;100524.16;;;8.68;100.00
16525;BME280;8375;33.594;-117.718;2023-02-28T12:06:57;100527.69;;;8.53;100.00
16525;BME280;8375;33.594;-117.718;2023-02-28T12:09:46;100523.22;;;8.69;100.00
16525;BME280;8375;33.594;-117.718;2023-02-28T12:12:26;100527.22;;;8.46;100.00
16525;BME280;8375;33.594;-117.718;2023-02-28T12:15:30;100529.59;;;8.21;100.00
16525;BME280;8375;33.594;-117.718;2023-02-28T12:20:55;100534.13;;;8.03;100.00
16525;BME280;8375;33.594;-117.718;2023-02-28T12:23:50;100524.44;;;8.07;100.00
16525;BME280;8375;33.594;-117.718;2023-02-28T12:26:26;100522.63;;;8.22;100.00
16525;BME280;8375;33.594;-117.718;2023-02-28T12:29:00;100535.81;;;8.46;100.00
16525;BME280;8375;33.594;-117.718;2023-02-28T12:31:36;100523.16;;;8.56;100.00
16525;BME280;8375;33.594;-117.718;2023-02-28T12:34:11;100522.59;;;8.51;100.00
16525;BME280;8375;33.594;-117.718;2023-02-28T12:36:41;100514.59;;;8.41;100.00
16525;BME280;8375;33.594;-117.718;2023-02-28T12:39:14;100512.53;;;8.46;100.00
16525;BME280;8375;33.594;-117.718;2023-02-28T12:41:47;100515.00;;;8.48;100.00
16525;BME280;8375;33.594;-117.718;2023-02-28T12:44:21;100511.28;;;8.66;100.00
16525;BME280;8375;33.594;-117.718;2023-02-28T12:46:56;100513.59;;;8.71;100.00
16525;BME280;8375;33.594;-117.718;2023-02-28T12:49:30;100513.34;;;8.61;100.00
16525;BME280;8375;33.594;-117.718;2023-02-28T12:52:00;100513.19;;;8.50;100.00
16525;BME280;8375;33.594;-117.718;2023-02-28T12:54:35;100508.63;;;8.68;100.00
16525;BME280;8375;33.594;-117.718;2023-02-28T12:57:10;100502.59;;;8.68;100.00
16525;BME280;8375;33.594;-117.718;2023-02-28T12:59:45;100501.13;;;8.63;100.00
16525;BME280;8375;33.594;-117.718;2023-02-28T13:02:41;100505.56;;;8.61;100.00
16525;BME280;8375;33.594;-117.718;2023-02-28T13:11:29;100492.28;;;8.80;100.00
16525;BME280;8375;33.594;-117.718;2023-02-28T13:14:01;100500.84;;;8.68;100.00
16525;BME280;8375;33.594;-117.718;2023-02-28T13:16:55;100510.59;;;8.50;100.00
16525;BME280;8375;33.594;-117.718;2023-02-28T13:19:27;100512.25;;;8.51;100.00
16525;BME280;8375;33.594;-117.718;2023-02-28T13:21:58;100514.00;;;8.78;100.00
16525;BME280;8375;33.594;-117.718;2023-02-28T13:24:44;100516.94;;;8.86;100.00
16525;BME280;8375;33.594;-117.718;2023-02-28T13:27:36;100514.22;;;8.75;100.00
16525;BME280;8375;33.594;-117.718;2023-02-28T13:33:24;100528.06;;;8.61;100.00
16525;BME280;8375;33.594;-117.718;2023-02-28T13:36:25;100525.88;;;8.68;100.00
16525;BME280;8375;33.594;-117.718;2023-02-28T13:38:56;100536.25;;;8.68;100.00
16525;BME280;8375;33.594;-117.718;2023-02-28T13:41:47;100526.00;;;8.66;100.00
16525;BME280;8375;33.594;-117.718;2023-02-28T13:44:18;100525.94;;;8.53;100.00
16525;BME280;8375;33.594;-117.718;2023-02-28T13:47:21;100534.78;;;8.63;100.00
16525;BME280;8375;33.594;-117.718;2023-02-28T13:49:51;100538.94;;;8.66;100.00
16525;BME280;8375;33.594;-117.718;2023-02-28T13:52:25;100530.88;;;8.71;100.00
16525;BME280;8375;33.594;-117.718;2023-02-28T13:55:10;100531.06;;;8.68;100.00
16525;BME280;8375;33.594;-117.718;2023-02-28T13:58:02;100528.63;;;8.79;100.00
16525;BME280;8375;33.594;-117.718;2023-02-28T14:00:57;100536.31;;;8.93;100.00
16525;BME280;8375;33.594;-117.718;2023-02-28T14:03:41;100536.78;;;9.00;100.00
16525;BME280;8375;33.594;-117.718;2023-02-28T14:06:25;100538.16;;;9.19;100.00
16525;BME280;8375;33.594;-117.718;2023-02-28T14:09:00;100542.78;;;9.01;100.00
16525;BME280;8375;33.594;-117.718;2023-02-28T14:11:32;100536.91;;;8.84;100.00
16525;BME280;8375;33.594;-117.718;2023-02-28T14:14:02;100530.94;;;8.84;100.00
16525;BME280;8375;33.594;-117.718;2023-02-28T14:16:41;100532.59;;;8.85;100.00
16525;BME280;8375;33.594;-117.718;2023-02-28T14:19:13;100537.34;;;8.63;100.00
16525;BME280;8375;33.594;-117.718;2023-02-28T14:21:59;100538.41;;;8.61;100.00
16525;BME280;8375;33.594;-117.718;2023-02-28T14:24:49;100539.41;;;8.58;100.00
16525;BME280;8375;33.594;-117.718;2023-02-28T14:27:41;100545.63;;;8.56;100.00